Historyczne dane pomiarowe

Dodano dane terminowe – wersja testowa.

Dane z okresu 1951-2019

Wersja bazy: 1.34 [2019-03-16, lista zmian], aktualizacja planowana na 2019-04-15

Dane meteo z obszaru Polski uzyskane na podstawie danych udostępnionych przez Instytut Meteorologii i Gospodarki Wodnej – Państwowy Instytut Badawczy.

 

Wybierz Datę:    

       

TemperaturaWilgotnośćWiatrCiśnienieOpadyŚniegCzas trwania zjawisk
 Stacja t tx tn tng RH VA  wxwx mslp ppp RRR   cm mm wxwxwxwxwxwxwx
1994-08-14 11.4 14.9 8.5 6.3 68.3- 5.0 6.0---- 0.0------------
1994-08-13 14.1 16.5 12.0 11.2 79.5- 6.3 5.0---- 0.8------------
1994-08-12 15.3 18.0 12.1 10.1 84.5- 7.3 2.7---- 8.0------------
1994-08-11 17.4 21.2 15.3 12.9 87.5- 7.3 3.0---- 30.3------------
1994-08-10 19.8 26.4 13.1 9.7 71.5- 2.7 1.3---- 5.5------------
1994-08-09 17.2 21.6 15.4 14.5 87.0- 5.0 3.7---- 3.2------------
1994-08-08 17.6 22.6 14.7 12.7 90.5- 7.7 1.3---- 11.5------------
1994-08-07 20.3 24.1 15.5 10.9 83.3- 4.0 0.7---- 3.5------------
1994-08-06 23.0 27.4 15.3 11.0 64.8- 2.7 0.7---- 0.0------------
1994-08-05 23.0 30.9 14.7 11.0 53.0- 4.0 3.0---- 0.0------------
1994-08-04 19.6 27.0 13.1 9.2 61.3- 0.0 2.7---- 0.0------------
1994-08-03 20.1 26.1 16.0 12.2 77.5- 3.7 2.3---- 0.0------------
1994-08-02 22.2 26.1 17.6 12.2 68.8- 1.3 4.0---- 0.0------------
1994-08-01 27.3 32.6 24.5 20.4 49.0- 0.0 5.0---- 0.0------------
1994-07-31 27.3 32.6 22.1 15.1 47.5- 0.3 4.7---- 0.0------------
1994-07-30 25.8 33.1 19.3 13.0 51.5- 1.0 2.0---- 0.0------------
1994-07-29 23.5 31.1 19.2 13.5 58.5- 1.3 0.7---- 0.0------------
1994-07-28 23.7 31.1 17.2 12.7 58.3- 0.0 3.0---- 0.0------------
1994-07-27 21.7 27.3 18.7 15.7 71.8- 4.3 1.0---- 0.0------------
1994-07-26 24.1 30.5 19.2 14.1 57.8- 2.7 4.3---- 0.2------------
1994-07-25 22.4 29.4 17.4 11.1 60.8- 1.7 1.7---- 0.0------------
1994-07-24 21.6 27.9 15.1 9.2 59.3- 1.0 3.3---- 0.0------------
1994-07-23 20.7 27.5 14.2 8.7 56.5- 0.0 3.3---- 0.0------------
1994-07-22 20.3 27.7 12.6 7.8 57.3- 0.0 2.0---- 0.0------------
1994-07-21 17.6 25.1 10.5 6.8 62.5- 0.0 3.3---- 0.0------------
1994-07-20 15.9 22.0 9.9 7.3 67.3- 1.0 5.0---- 0.0------------
1994-07-19 15.1 17.0 13.1 12.6 83.3- 6.7 2.0---- 0.5------------
1994-07-18 16.8 20.8 13.4 9.3 91.0- 3.3 1.7---- 0.0------------
1994-07-17 20.5 25.1 15.6 12.1 80.0- 4.0 1.3---- 0.2------------
1994-07-16 19.4 24.5 15.3 12.2 81.8- 4.0 2.3---- 0.0------------
1994-07-15 20.2 26.8 15.7 11.5 75.5- 4.3 1.7---- 0.2------------
1994-07-14 22.0 27.2 16.1 10.6 64.8- 2.0 2.0---- 0.0------------
1994-07-13 21.1 27.0 14.2 9.5 57.8- 1.0 5.0---- 0.0------------
1994-07-12 19.8 24.5 13.2 8.3 68.8- 2.0 4.7---- 0.0------------
1994-07-11 18.4 23.6 12.0 8.8 70.5- 1.3 2.7---- 0.0------------
1994-07-10 15.1 20.3 11.6 11.6 85.3- 5.0 2.7---- 0.2------------
1994-07-09 14.1 17.5 11.8 10.2 83.8- 7.3 4.0---- 40.7------------
1994-07-08 12.6 14.7 10.2 8.3 78.3- 6.0 5.7---- 0.9------------
1994-07-07 15.3 20.8 11.8 9.3 89.5- 6.0 1.3---- 16.8------------
1994-07-06 17.7 23.0 14.1 10.0 83.3- 5.3 3.3---- 5.8------------
1994-07-05 19.3 22.8 15.2 11.7 79.5- 2.0 2.7---- 0.2------------
1994-07-04 21.1 28.5 15.1 10.1 64.3- 1.3 2.0---- 0.0------------
1994-07-03 20.2 26.7 12.2 7.1 63.8- 0.0 3.3---- 0.0------------
1994-07-02 16.7 23.8 9.6 4.7 67.8- 0.0 3.7---- 0.0------------
1994-07-01 14.6 20.8 8.0 4.4 77.3- 0.3 3.0---- 0.0------------
1994-06-30 16.1 25.3 12.9 12.7 94.8- 5.7 3.0---- 4.3------------
1994-06-29 26.0 31.1 21.4 16.6 65.3- 3.0 3.0---- 24.4------------
1994-06-28 23.5 30.0 18.3 14.6 77.0- 1.7 1.3---- 0.0------------
1994-06-27 22.2 28.1 16.2 11.6 75.0- 1.3 3.0---- 0.0------------
1994-06-26 22.0 28.4 17.7 13.9 62.5- 1.0 4.0---- 0.0------------
1994-06-25 18.1 25.1 7.0 0.9 50.5- 0.0 5.3---- 0.0------------
1994-06-24 12.4 18.0 4.5 -0.8 60.5- 0.0 3.7---- 0.0------------
1994-06-23 13.8 18.3 10.6 8.7 62.0- 3.0 6.3---- 0.0------------
1994-06-22 18.7 23.5 15.2 11.1 71.3- 5.0 6.3---- 0.0------------
1994-06-21 15.1 20.3 7.9 4.3 69.3- 2.0 3.3---- 0.0------------
1994-06-20 14.2 18.8 12.1 10.6 79.0- 5.7 3.3---- 0.0------------
1994-06-19 17.8 22.9 11.5 10.2 54.3- 2.0 6.7---- 0.0------------
1994-06-18 12.6 18.4 3.6 -1.0 66.0- 5.7 8.0---- 2.2------------
1994-06-17 8.3 12.2 5.6 5.5 77.0- 5.3 3.0---- 0.0------------
1994-06-16 9.0 12.4 5.6 3.2 82.8- 8.0 3.0---- 10.0------------
1035.0 ms

 

Źródłem pochodzenia danych jest Instytut Meteorologii i Gospodarki Wodnej – Państwowy Instytut Badawczy. Dane Instytutu Meteorologii i Gospodarki Wodnej – Państwowego Instytutu Badawczego zostały przetworzone.

Dane źródłowe można odnaleźć na stronie https://dane.imgw.pl